sensor_id;sensor_type;location;lat;lon;timestamp;P1;durP1;ratioP1;P2;durP2;ratioP2
15256;SDS011;7731;50.720;6.912;2023-02-19T00:00:25;1.60;;;0.20;;
15256;SDS011;7731;50.720;6.912;2023-02-19T00:02:57;0.40;;;0.30;;
15256;SDS011;7731;50.720;6.912;2023-02-19T00:05:29;0.40;;;0.20;;
15256;SDS011;7731;50.720;6.912;2023-02-19T00:07:59;0.80;;;0.30;;
15256;SDS011;7731;50.720;6.912;2023-02-19T00:10:29;0.73;;;0.40;;
15256;SDS011;7731;50.720;6.912;2023-02-19T00:12:59;0.57;;;0.40;;
15256;SDS011;7731;50.720;6.912;2023-02-19T00:15:30;0.40;;;0.32;;
15256;SDS011;7731;50.720;6.912;2023-02-19T00:18:07;1.27;;;0.50;;
15256;SDS011;7731;50.720;6.912;2023-02-19T00:20:39;1.15;;;0.43;;
15256;SDS011;7731;50.720;6.912;2023-02-19T00:23:11;4.13;;;0.75;;
15256;SDS011;7731;50.720;6.912;2023-02-19T00:25:41;0.98;;;0.63;;
15256;SDS011;7731;50.720;6.912;2023-02-19T00:28:11;1.27;;;0.90;;
15256;SDS011;7731;50.720;6.912;2023-02-19T00:30:41;0.90;;;0.82;;
15256;SDS011;7731;50.720;6.912;2023-02-19T00:33:14;0.82;;;0.80;;
15256;SDS011;7731;50.720;6.912;2023-02-19T00:35:44;1.38;;;0.75;;
15256;SDS011;7731;50.720;6.912;2023-02-19T00:38:14;1.00;;;0.90;;
15256;SDS011;7731;50.720;6.912;2023-02-19T00:40:45;2.25;;;0.93;;
15256;SDS011;7731;50.720;6.912;2023-02-19T00:43:15;1.77;;;1.10;;
15256;SDS011;7731;50.720;6.912;2023-02-19T00:45:45;1.50;;;1.40;;
15256;SDS011;7731;50.720;6.912;2023-02-19T00:48:17;2.28;;;2.00;;
15256;SDS011;7731;50.720;6.912;2023-02-19T00:50:47;2.40;;;2.20;;
15256;SDS011;7731;50.720;6.912;2023-02-19T00:53:18;2.60;;;2.30;;
15256;SDS011;7731;50.720;6.912;2023-02-19T00:55:48;3.00;;;2.50;;
15256;SDS011;7731;50.720;6.912;2023-02-19T00:58:18;3.83;;;3.20;;
15256;SDS011;7731;50.720;6.912;2023-02-19T01:00:48;3.08;;;2.78;;
15256;SDS011;7731;50.720;6.912;2023-02-19T01:03:21;3.42;;;2.97;;
15256;SDS011;7731;50.720;6.912;2023-02-19T01:05:51;3.47;;;2.97;;
15256;SDS011;7731;50.720;6.912;2023-02-19T01:08:22;3.20;;;2.75;;
15256;SDS011;7731;50.720;6.912;2023-02-19T01:10:55;7.00;;;3.15;;
15256;SDS011;7731;50.720;6.912;2023-02-19T01:13:25;3.30;;;2.90;;
15256;SDS011;7731;50.720;6.912;2023-02-19T01:16:01;3.17;;;2.88;;
15256;SDS011;7731;50.720;6.912;2023-02-19T01:18:35;4.57;;;2.78;;
15256;SDS011;7731;50.720;6.912;2023-02-19T01:21:06;3.35;;;3.05;;
15256;SDS011;7731;50.720;6.912;2023-02-19T01:23:40;2.90;;;2.50;;
15256;SDS011;7731;50.720;6.912;2023-02-19T01:26:10;4.28;;;2.60;;
15256;SDS011;7731;50.720;6.912;2023-02-19T01:28:44;3.03;;;2.53;;
15256;SDS011;7731;50.720;6.912;2023-02-19T01:31:16;2.03;;;1.60;;
15256;SDS011;7731;50.720;6.912;2023-02-19T01:33:52;3.22;;;1.85;;
15256;SDS011;7731;50.720;6.912;2023-02-19T01:36:24;1.58;;;1.40;;
15256;SDS011;7731;50.720;6.912;2023-02-19T01:38:55;1.40;;;1.30;;
15256;SDS011;7731;50.720;6.912;2023-02-19T01:41:29;0.80;;;0.80;;
15256;SDS011;7731;50.720;6.912;2023-02-19T01:44:01;0.85;;;0.63;;
15256;SDS011;7731;50.720;6.912;2023-02-19T01:46:34;0.90;;;0.65;;
15256;SDS011;7731;50.720;6.912;2023-02-19T01:49:09;0.80;;;0.80;;
15256;SDS011;7731;50.720;6.912;2023-02-19T01:51:49;0.60;;;0.60;;
15256;SDS011;7731;50.720;6.912;2023-02-19T01:54:25;0.90;;;0.90;;
15256;SDS011;7731;50.720;6.912;2023-02-19T01:57:06;1.00;;;0.90;;
15256;SDS011;7731;50.720;6.912;2023-02-19T01:59:41;1.90;;;0.65;;
15256;SDS011;7731;50.720;6.912;2023-02-19T02:02:18;1.00;;;0.75;;
15256;SDS011;7731;50.720;6.912;2023-02-19T02:04:55;0.70;;;0.70;;
15256;SDS011;7731;50.720;6.912;2023-02-19T02:07:29;0.68;;;0.60;;
15256;SDS011;7731;50.720;6.912;2023-02-19T02:10:12;0.95;;;0.63;;
15256;SDS011;7731;50.720;6.912;2023-02-19T02:12:51;0.70;;;0.70;;
15256;SDS011;7731;50.720;6.912;2023-02-19T02:15:27;0.98;;;0.90;;
15256;SDS011;7731;50.720;6.912;2023-02-19T02:18:10;2.75;;;1.20;;
15256;SDS011;7731;50.720;6.912;2023-02-19T02:21:02;2.35;;;1.30;;
15256;SDS011;7731;50.720;6.912;2023-02-19T02:24:03;3.25;;;1.40;;
15256;SDS011;7731;50.720;6.912;2023-02-19T02:27:03;2.20;;;1.15;;
15256;SDS011;7731;50.720;6.912;2023-02-19T02:30:10;1.77;;;1.40;;
15256;SDS011;7731;50.720;6.912;2023-02-19T02:33:13;1.65;;;1.42;;
15256;SDS011;7731;50.720;6.912;2023-02-19T02:35:55;2.00;;;1.60;;
15256;SDS011;7731;50.720;6.912;2023-02-19T02:38:34;1.55;;;1.45;;
15256;SDS011;7731;50.720;6.912;2023-02-19T02:41:08;1.67;;;1.58;;
15256;SDS011;7731;50.720;6.912;2023-02-19T02:43:40;2.00;;;1.73;;
15256;SDS011;7731;50.720;6.912;2023-02-19T02:46:14;1.83;;;1.70;;
15256;SDS011;7731;50.720;6.912;2023-02-19T02:48:51;1.90;;;1.80;;
15256;SDS011;7731;50.720;6.912;2023-02-19T02:51:26;4.78;;;2.10;;
15256;SDS011;7731;50.720;6.912;2023-02-19T02:54:00;2.78;;;2.47;;
15256;SDS011;7731;50.720;6.912;2023-02-19T02:56:49;2.47;;;2.28;;
15256;SDS011;7731;50.720;6.912;2023-02-19T02:59:23;3.58;;;2.80;;
15256;SDS011;7731;50.720;6.912;2023-02-19T03:02:02;5.03;;;2.90;;
15256;SDS011;7731;50.720;6.912;2023-02-19T03:04:42;5.13;;;3.20;;
15256;SDS011;7731;50.720;6.912;2023-02-19T03:07:35;5.70;;;3.30;;
15256;SDS011;7731;50.720;6.912;2023-02-19T03:10:12;5.07;;;3.65;;
15256;SDS011;7731;50.720;6.912;2023-02-19T03:12:51;4.65;;;3.63;;
15256;SDS011;7731;50.720;6.912;2023-02-19T03:15:40;6.70;;;4.40;;
15256;SDS011;7731;50.720;6.912;2023-02-19T03:21:30;7.15;;;4.40;;
15256;SDS011;7731;50.720;6.912;2023-02-19T03:24:06;7.05;;;4.70;;
15256;SDS011;7731;50.720;6.912;2023-02-19T03:26:53;6.35;;;4.75;;
15256;SDS011;7731;50.720;6.912;2023-02-19T03:29:27;5.10;;;4.60;;
15256;SDS011;7731;50.720;6.912;2023-02-19T03:32:03;5.35;;;4.32;;
15256;SDS011;7731;50.720;6.912;2023-02-19T03:34:43;7.05;;;4.45;;
15256;SDS011;7731;50.720;6.912;2023-02-19T03:37:25;6.30;;;4.90;;
15256;SDS011;7731;50.720;6.912;2023-02-19T03:40:03;7.15;;;4.68;;
15256;SDS011;7731;50.720;6.912;2023-02-19T03:42:37;7.25;;;5.10;;
15256;SDS011;7731;50.720;6.912;2023-02-19T03:48:17;5.60;;;5.00;;
15256;SDS011;7731;50.720;6.912;2023-02-19T03:51:06;8.18;;;5.05;;
15256;SDS011;7731;50.720;6.912;2023-02-19T03:53:56;6.80;;;5.05;;
15256;SDS011;7731;50.720;6.912;2023-02-19T03:56:42;6.13;;;4.93;;
15256;SDS011;7731;50.720;6.912;2023-02-19T03:59:19;9.27;;;5.30;;
15256;SDS011;7731;50.720;6.912;2023-02-19T04:02:01;9.35;;;5.03;;
15256;SDS011;7731;50.720;6.912;2023-02-19T04:04:41;7.93;;;5.10;;
15256;SDS011;7731;50.720;6.912;2023-02-19T04:07:20;10.10;;;5.55;;
15256;SDS011;7731;50.720;6.912;2023-02-19T04:09:53;6.35;;;4.50;;
15256;SDS011;7731;50.720;6.912;2023-02-19T04:12:24;9.88;;;5.78;;
15256;SDS011;7731;50.720;6.912;2023-02-19T04:14:58;10.85;;;5.85;;
15256;SDS011;7731;50.720;6.912;2023-02-19T04:17:36;10.02;;;5.68;;
15256;SDS011;7731;50.720;6.912;2023-02-19T04:20:19;9.68;;;5.88;;
15256;SDS011;7731;50.720;6.912;2023-02-19T04:22:56;8.03;;;5.13;;
15256;SDS011;7731;50.720;6.912;2023-02-19T04:25:27;10.98;;;5.65;;
15256;SDS011;7731;50.720;6.912;2023-02-19T04:28:00;10.07;;;5.60;;
15256;SDS011;7731;50.720;6.912;2023-02-19T04:30:30;11.02;;;6.10;;
15256;SDS011;7731;50.720;6.912;2023-02-19T04:33:03;10.20;;;5.47;;
15256;SDS011;7731;50.720;6.912;2023-02-19T04:35:33;12.02;;;5.80;;
15256;SDS011;7731;50.720;6.912;2023-02-19T04:38:06;11.45;;;5.55;;
15256;SDS011;7731;50.720;6.912;2023-02-19T04:40:37;11.98;;;5.63;;
15256;SDS011;7731;50.720;6.912;2023-02-19T04:43:07;9.27;;;6.05;;
15256;SDS011;7731;50.720;6.912;2023-02-19T04:45:40;9.98;;;6.10;;
15256;SDS011;7731;50.720;6.912;2023-02-19T04:48:10;7.63;;;6.20;;
15256;SDS011;7731;50.720;6.912;2023-02-19T04:50:40;9.57;;;6.38;;
15256;SDS011;7731;50.720;6.912;2023-02-19T04:53:13;10.73;;;5.87;;
15256;SDS011;7731;50.720;6.912;2023-02-19T04:55:43;8.13;;;5.60;;
15256;SDS011;7731;50.720;6.912;2023-02-19T04:58:14;9.52;;;5.40;;
15256;SDS011;7731;50.720;6.912;2023-02-19T05:00:44;11.15;;;5.60;;
15256;SDS011;7731;50.720;6.912;2023-02-19T05:03:14;10.10;;;6.05;;
15256;SDS011;7731;50.720;6.912;2023-02-19T05:05:44;8.90;;;5.32;;
15256;SDS011;7731;50.720;6.912;2023-02-19T05:08:17;10.32;;;5.60;;
15256;SDS011;7731;50.720;6.912;2023-02-19T05:10:48;10.60;;;5.85;;
15256;SDS011;7731;50.720;6.912;2023-02-19T05:13:18;10.68;;;6.47;;
15256;SDS011;7731;50.720;6.912;2023-02-19T05:15:58;12.98;;;6.30;;
15256;SDS011;7731;50.720;6.912;2023-02-19T05:18:32;12.55;;;6.10;;
15256;SDS011;7731;50.720;6.912;2023-02-19T05:21:02;10.63;;;6.15;;
15256;SDS011;7731;50.720;6.912;2023-02-19T05:23:37;14.23;;;6.60;;
15256;SDS011;7731;50.720;6.912;2023-02-19T05:26:08;9.80;;;6.20;;
15256;SDS011;7731;50.720;6.912;2023-02-19T05:28:44;9.50;;;6.10;;
15256;SDS011;7731;50.720;6.912;2023-02-19T05:31:15;12.90;;;6.90;;
15256;SDS011;7731;50.720;6.912;2023-02-19T05:33:47;10.50;;;6.43;;
15256;SDS011;7731;50.720;6.912;2023-02-19T05:36:18;13.18;;;6.85;;
15256;SDS011;7731;50.720;6.912;2023-02-19T05:38:54;10.85;;;6.72;;
15256;SDS011;7731;50.720;6.912;2023-02-19T05:41:28;14.40;;;7.40;;
15256;SDS011;7731;50.720;6.912;2023-02-19T05:44:01;15.07;;;7.07;;
15256;SDS011;7731;50.720;6.912;2023-02-19T05:46:31;13.40;;;7.20;;
15256;SDS011;7731;50.720;6.912;2023-02-19T05:49:01;10.40;;;6.97;;
15256;SDS011;7731;50.720;6.912;2023-02-19T05:51:32;14.40;;;7.60;;
15256;SDS011;7731;50.720;6.912;2023-02-19T05:54:05;13.57;;;8.20;;
15256;SDS011;7731;50.720;6.912;2023-02-19T05:56:36;15.13;;;7.75;;
15256;SDS011;7731;50.720;6.912;2023-02-19T05:59:13;13.38;;;8.70;;
15256;SDS011;7731;50.720;6.912;2023-02-19T06:01:45;12.23;;;7.72;;
15256;SDS011;7731;50.720;6.912;2023-02-19T06:04:19;11.57;;;8.07;;
15256;SDS011;7731;50.720;6.912;2023-02-19T06:06:52;14.23;;;8.10;;
15256;SDS011;7731;50.720;6.912;2023-02-19T06:09:25;14.10;;;9.00;;
15256;SDS011;7731;50.720;6.912;2023-02-19T06:11:55;13.93;;;7.50;;
15256;SDS011;7731;50.720;6.912;2023-02-19T06:14:28;12.17;;;7.90;;
15256;SDS011;7731;50.720;6.912;2023-02-19T06:16:58;17.40;;;9.10;;
15256;SDS011;7731;50.720;6.912;2023-02-19T06:19:35;12.47;;;8.67;;
15256;SDS011;7731;50.720;6.912;2023-02-19T06:22:05;13.40;;;8.80;;
15256;SDS011;7731;50.720;6.912;2023-02-19T06:24:38;13.88;;;7.28;;
15256;SDS011;7731;50.720;6.912;2023-02-19T06:27:11;11.50;;;7.07;;
15256;SDS011;7731;50.720;6.912;2023-02-19T06:29:41;15.60;;;7.83;;
15256;SDS011;7731;50.720;6.912;2023-02-19T06:32:14;17.17;;;8.03;;
15256;SDS011;7731;50.720;6.912;2023-02-19T06:34:44;14.50;;;8.07;;
15256;SDS011;7731;50.720;6.912;2023-02-19T06:37:15;10.57;;;7.70;;
15256;SDS011;7731;50.720;6.912;2023-02-19T06:39:47;14.27;;;8.57;;
15256;SDS011;7731;50.720;6.912;2023-02-19T06:42:19;12.40;;;7.23;;
15256;SDS011;7731;50.720;6.912;2023-02-19T06:44:49;15.47;;;8.40;;
15256;SDS011;7731;50.720;6.912;2023-02-19T06:47:19;13.50;;;7.93;;
15256;SDS011;7731;50.720;6.912;2023-02-19T06:49:52;11.30;;;7.07;;
15256;SDS011;7731;50.720;6.912;2023-02-19T06:52:22;19.37;;;8.70;;
15256;SDS011;7731;50.720;6.912;2023-02-19T06:54:55;13.10;;;8.07;;
15256;SDS011;7731;50.720;6.912;2023-02-19T06:57:25;16.07;;;9.20;;
15256;SDS011;7731;50.720;6.912;2023-02-19T06:59:56;13.60;;;8.53;;
15256;SDS011;7731;50.720;6.912;2023-02-19T07:02:26;13.83;;;7.93;;
15256;SDS011;7731;50.720;6.912;2023-02-19T07:04:56;15.00;;;7.70;;
15256;SDS011;7731;50.720;6.912;2023-02-19T07:07:26;16.70;;;8.03;;
15256;SDS011;7731;50.720;6.912;2023-02-19T07:10:00;13.77;;;8.33;;
15256;SDS011;7731;50.720;6.912;2023-02-19T07:12:31;15.07;;;8.40;;
15256;SDS011;7731;50.720;6.912;2023-02-19T07:15:01;16.13;;;7.23;;
15256;SDS011;7731;50.720;6.912;2023-02-19T07:17:33;13.37;;;8.43;;
15256;SDS011;7731;50.720;6.912;2023-02-19T07:20:04;18.93;;;8.03;;
15256;SDS011;7731;50.720;6.912;2023-02-19T07:22:34;17.73;;;8.50;;
15256;SDS011;7731;50.720;6.912;2023-02-19T07:25:07;10.60;;;7.90;;
15256;SDS011;7731;50.720;6.912;2023-02-19T07:27:37;13.13;;;8.33;;
15256;SDS011;7731;50.720;6.912;2023-02-19T07:30:08;15.80;;;8.57;;
15256;SDS011;7731;50.720;6.912;2023-02-19T07:32:40;14.60;;;8.48;;
15256;SDS011;7731;50.720;6.912;2023-02-19T07:35:10;13.25;;;8.77;;
15256;SDS011;7731;50.720;6.912;2023-02-19T07:37:41;13.60;;;7.97;;
15256;SDS011;7731;50.720;6.912;2023-02-19T07:40:21;14.77;;;8.13;;
15256;SDS011;7731;50.720;6.912;2023-02-19T07:42:51;16.43;;;8.80;;
15256;SDS011;7731;50.720;6.912;2023-02-19T07:45:23;17.63;;;8.25;;
15256;SDS011;7731;50.720;6.912;2023-02-19T07:47:54;14.02;;;8.80;;
15256;SDS011;7731;50.720;6.912;2023-02-19T07:50:24;21.75;;;9.07;;
15256;SDS011;7731;50.720;6.912;2023-02-19T07:52:54;13.85;;;8.18;;
15256;SDS011;7731;50.720;6.912;2023-02-19T07:55:27;15.48;;;8.10;;
15256;SDS011;7731;50.720;6.912;2023-02-19T07:58:00;18.38;;;9.32;;
15256;SDS011;7731;50.720;6.912;2023-02-19T08:00:31;17.40;;;9.20;;
15256;SDS011;7731;50.720;6.912;2023-02-19T08:03:03;15.15;;;8.85;;
15256;SDS011;7731;50.720;6.912;2023-02-19T08:05:31;13.33;;;8.77;;
15256;SDS011;7731;50.720;6.912;2023-02-19T08:08:07;19.20;;;9.48;;
15256;SDS011;7731;50.720;6.912;2023-02-19T08:10:42;20.23;;;10.10;;
15256;SDS011;7731;50.720;6.912;2023-02-19T08:13:25;13.55;;;9.02;;
15256;SDS011;7731;50.720;6.912;2023-02-19T08:16:08;15.97;;;10.00;;
15256;SDS011;7731;50.720;6.912;2023-02-19T08:18:58;20.50;;;10.20;;
15256;SDS011;7731;50.720;6.912;2023-02-19T08:21:28;15.70;;;9.63;;
15256;SDS011;7731;50.720;6.912;2023-02-19T08:23:59;20.40;;;10.50;;
15256;SDS011;7731;50.720;6.912;2023-02-19T08:26:32;15.13;;;8.55;;
15256;SDS011;7731;50.720;6.912;2023-02-19T08:29:03;16.08;;;9.43;;
15256;SDS011;7731;50.720;6.912;2023-02-19T08:31:34;19.35;;;9.88;;
15256;SDS011;7731;50.720;6.912;2023-02-19T08:34:08;18.67;;;9.05;;
15256;SDS011;7731;50.720;6.912;2023-02-19T08:36:38;16.95;;;9.13;;
15256;SDS011;7731;50.720;6.912;2023-02-19T08:39:12;16.73;;;9.50;;
15256;SDS011;7731;50.720;6.912;2023-02-19T08:41:49;17.08;;;8.10;;
15256;SDS011;7731;50.720;6.912;2023-02-19T08:44:19;15.82;;;9.00;;
15256;SDS011;7731;50.720;6.912;2023-02-19T08:46:49;11.98;;;8.27;;
15256;SDS011;7731;50.720;6.912;2023-02-19T08:49:20;18.88;;;8.52;;
15256;SDS011;7731;50.720;6.912;2023-02-19T08:51:54;14.10;;;8.60;;
15256;SDS011;7731;50.720;6.912;2023-02-19T08:54:24;12.77;;;7.53;;
15256;SDS011;7731;50.720;6.912;2023-02-19T08:56:57;16.13;;;7.97;;
15256;SDS011;7731;50.720;6.912;2023-02-19T08:59:29;14.18;;;7.65;;
15256;SDS011;7731;50.720;6.912;2023-02-19T09:02:00;14.00;;;7.32;;
15256;SDS011;7731;50.720;6.912;2023-02-19T09:04:30;15.60;;;7.93;;
15256;SDS011;7731;50.720;6.912;2023-02-19T09:07:01;17.85;;;8.00;;
15256;SDS011;7731;50.720;6.912;2023-02-19T09:09:35;13.50;;;7.10;;
15256;SDS011;7731;50.720;6.912;2023-02-19T09:12:12;13.88;;;7.38;;
15256;SDS011;7731;50.720;6.912;2023-02-19T09:14:42;14.30;;;7.88;;
15256;SDS011;7731;50.720;6.912;2023-02-19T09:17:13;13.93;;;8.48;;
15256;SDS011;7731;50.720;6.912;2023-02-19T09:19:43;15.50;;;7.13;;
15256;SDS011;7731;50.720;6.912;2023-02-19T09:22:16;12.85;;;7.63;;
15256;SDS011;7731;50.720;6.912;2023-02-19T09:24:46;12.93;;;7.55;;
15256;SDS011;7731;50.720;6.912;2023-02-19T09:27:19;12.68;;;8.63;;
15256;SDS011;7731;50.720;6.912;2023-02-19T09:29:49;12.93;;;7.78;;
15256;SDS011;7731;50.720;6.912;2023-02-19T09:32:20;13.70;;;8.52;;
15256;SDS011;7731;50.720;6.912;2023-02-19T09:34:50;18.05;;;8.05;;
15256;SDS011;7731;50.720;6.912;2023-02-19T09:37:23;16.85;;;8.68;;
15256;SDS011;7731;50.720;6.912;2023-02-19T09:39:55;12.80;;;7.78;;
15256;SDS011;7731;50.720;6.912;2023-02-19T09:42:28;13.38;;;7.63;;
15256;SDS011;7731;50.720;6.912;2023-02-19T09:45:01;17.65;;;8.07;;
15256;SDS011;7731;50.720;6.912;2023-02-19T09:47:49;12.38;;;7.55;;
15256;SDS011;7731;50.720;6.912;2023-02-19T09:50:26;11.80;;;7.53;;
15256;SDS011;7731;50.720;6.912;2023-02-19T09:53:04;11.02;;;7.10;;
15256;SDS011;7731;50.720;6.912;2023-02-19T09:55:44;13.65;;;7.03;;
15256;SDS011;7731;50.720;6.912;2023-02-19T09:58:21;14.88;;;7.97;;
15256;SDS011;7731;50.720;6.912;2023-02-19T10:00:59;11.77;;;7.22;;
15256;SDS011;7731;50.720;6.912;2023-02-19T10:03:33;16.25;;;7.40;;
15256;SDS011;7731;50.720;6.912;2023-02-19T10:06:17;14.32;;;8.27;;
15256;SDS011;7731;50.720;6.912;2023-02-19T10:08:52;15.88;;;8.02;;
15256;SDS011;7731;50.720;6.912;2023-02-19T10:11:45;17.63;;;6.78;;
15256;SDS011;7731;50.720;6.912;2023-02-19T10:14:21;11.55;;;6.18;;
15256;SDS011;7731;50.720;6.912;2023-02-19T10:17:03;10.32;;;5.95;;
15256;SDS011;7731;50.720;6.912;2023-02-19T10:19:35;10.05;;;6.75;;
15256;SDS011;7731;50.720;6.912;2023-02-19T10:22:05;10.18;;;5.70;;
15256;SDS011;7731;50.720;6.912;2023-02-19T10:24:38;9.05;;;5.53;;
15256;SDS011;7731;50.720;6.912;2023-02-19T10:27:12;10.70;;;5.50;;
15256;SDS011;7731;50.720;6.912;2023-02-19T10:29:46;8.18;;;5.20;;
15256;SDS011;7731;50.720;6.912;2023-02-19T10:32:23;9.60;;;5.40;;
15256;SDS011;7731;50.720;6.912;2023-02-19T10:35:07;10.68;;;6.10;;
15256;SDS011;7731;50.720;6.912;2023-02-19T10:37:41;7.00;;;5.47;;
15256;SDS011;7731;50.720;6.912;2023-02-19T10:40:15;7.97;;;4.95;;
15256;SDS011;7731;50.720;6.912;2023-02-19T10:42:49;8.70;;;5.15;;
15256;SDS011;7731;50.720;6.912;2023-02-19T10:45:27;10.18;;;5.70;;
15256;SDS011;7731;50.720;6.912;2023-02-19T10:48:08;10.30;;;5.07;;
15256;SDS011;7731;50.720;6.912;2023-02-19T10:50:52;7.50;;;4.55;;
15256;SDS011;7731;50.720;6.912;2023-02-19T10:53:39;6.25;;;3.95;;
15256;SDS011;7731;50.720;6.912;2023-02-19T10:56:14;8.10;;;4.13;;
15256;SDS011;7731;50.720;6.912;2023-02-19T10:58:52;8.75;;;5.18;;
15256;SDS011;7731;50.720;6.912;2023-02-19T11:01:26;6.40;;;4.70;;
15256;SDS011;7731;50.720;6.912;2023-02-19T11:04:13;7.10;;;5.03;;
15256;SDS011;7731;50.720;6.912;2023-02-19T11:06:45;9.48;;;5.13;;
15256;SDS011;7731;50.720;6.912;2023-02-19T11:09:21;10.18;;;5.88;;
15256;SDS011;7731;50.720;6.912;2023-02-19T11:12:00;11.25;;;5.85;;
15256;SDS011;7731;50.720;6.912;2023-02-19T11:14:34;10.48;;;5.38;;
15256;SDS011;7731;50.720;6.912;2023-02-19T11:17:16;7.97;;;5.30;;
15256;SDS011;7731;50.720;6.912;2023-02-19T11:19:53;10.65;;;6.18;;
15256;SDS011;7731;50.720;6.912;2023-02-19T11:22:28;6.95;;;5.30;;
15256;SDS011;7731;50.720;6.912;2023-02-19T11:25:04;10.80;;;5.75;;
15256;SDS011;7731;50.720;6.912;2023-02-19T11:27:57;9.23;;;5.93;;
15256;SDS011;7731;50.720;6.912;2023-02-19T11:30:37;9.27;;;6.03;;
15256;SDS011;7731;50.720;6.912;2023-02-19T11:33:21;8.90;;;5.63;;
15256;SDS011;7731;50.720;6.912;2023-02-19T11:38:58;9.05;;;5.00;;
15256;SDS011;7731;50.720;6.912;2023-02-19T11:42:08;9.20;;;4.78;;
15256;SDS011;7731;50.720;6.912;2023-02-19T11:45:06;6.35;;;4.68;;
15256;SDS011;7731;50.720;6.912;2023-02-19T11:47:58;7.88;;;5.05;;
15256;SDS011;7731;50.720;6.912;2023-02-19T11:51:09;6.50;;;4.47;;
15256;SDS011;7731;50.720;6.912;2023-02-19T11:54:23;7.45;;;5.07;;
15256;SDS011;7731;50.720;6.912;2023-02-19T11:57:28;8.93;;;4.95;;
15256;SDS011;7731;50.720;6.912;2023-02-19T12:00:22;10.05;;;5.32;;
15256;SDS011;7731;50.720;6.912;2023-02-19T12:03:01;9.43;;;5.65;;
15256;SDS011;7731;50.720;6.912;2023-02-19T12:06:06;10.40;;;5.97;;
15256;SDS011;7731;50.720;6.912;2023-02-19T12:09:02;14.85;;;7.90;;
15256;SDS011;7731;50.720;6.912;2023-02-19T12:18:20;7.90;;;5.43;;
15256;SDS011;7731;50.720;6.912;2023-02-19T12:21:29;9.95;;;5.65;;
15256;SDS011;7731;50.720;6.912;2023-02-19T12:24:33;8.23;;;6.03;;
15256;SDS011;7731;50.720;6.912;2023-02-19T12:27:56;10.32;;;6.03;;
15256;SDS011;7731;50.720;6.912;2023-02-19T12:31:06;6.28;;;5.28;;
15256;SDS011;7731;50.720;6.912;2023-02-19T12:34:18;6.28;;;4.47;;
15256;SDS011;7731;50.720;6.912;2023-02-19T12:40:30;5.75;;;3.67;;
15256;SDS011;7731;50.720;6.912;2023-02-19T12:43:15;4.90;;;4.22;;
15256;SDS011;7731;50.720;6.912;2023-02-19T12:45:50;6.38;;;4.25;;
15256;SDS011;7731;50.720;6.912;2023-02-19T12:48:28;4.57;;;3.88;;
15256;SDS011;7731;50.720;6.912;2023-02-19T12:51:09;6.72;;;3.88;;
15256;SDS011;7731;50.720;6.912;2023-02-19T12:53:53;7.25;;;3.80;;
15256;SDS011;7731;50.720;6.912;2023-02-19T12:56:35;4.65;;;3.90;;
15256;SDS011;7731;50.720;6.912;2023-02-19T12:59:13;6.13;;;3.50;;
15256;SDS011;7731;50.720;6.912;2023-02-19T13:01:55;5.68;;;3.85;;
15256;SDS011;7731;50.720;6.912;2023-02-19T13:04:36;6.38;;;4.10;;
15256;SDS011;7731;50.720;6.912;2023-02-19T13:07:19;6.10;;;3.60;;
15256;SDS011;7731;50.720;6.912;2023-02-19T13:09:59;4.18;;;2.97;;
15256;SDS011;7731;50.720;6.912;2023-02-19T13:12:46;4.82;;;3.28;;
15256;SDS011;7731;50.720;6.912;2023-02-19T13:15:20;4.88;;;2.92;;
15256;SDS011;7731;50.720;6.912;2023-02-19T13:18:00;4.97;;;3.10;;
15256;SDS011;7731;50.720;6.912;2023-02-19T13:20:43;4.00;;;3.10;;
15256;SDS011;7731;50.720;6.912;2023-02-19T13:23:18;9.90;;;3.30;;
15256;SDS011;7731;50.720;6.912;2023-02-19T13:26:25;4.65;;;3.00;;
15256;SDS011;7731;50.720;6.912;2023-02-19T13:29:21;5.60;;;3.63;;
15256;SDS011;7731;50.720;6.912;2023-02-19T13:32:13;5.60;;;4.20;;
15256;SDS011;7731;50.720;6.912;2023-02-19T13:38:32;6.45;;;5.15;;
15256;SDS011;7731;50.720;6.912;2023-02-19T13:41:28;5.80;;;4.57;;
15256;SDS011;7731;50.720;6.912;2023-02-19T13:44:03;7.95;;;5.63;;
15256;SDS011;7731;50.720;6.912;2023-02-19T13:46:44;7.45;;;5.72;;
15256;SDS011;7731;50.720;6.912;2023-02-19T14:04:57;8.77;;;6.22;;
15256;SDS011;7731;50.720;6.912;2023-02-19T14:07:47;8.32;;;6.03;;
15256;SDS011;7731;50.720;6.912;2023-02-19T14:19:56;6.95;;;5.00;;
15256;SDS011;7731;50.720;6.912;2023-02-19T14:25:41;10.38;;;4.70;;
15256;SDS011;7731;50.720;6.912;2023-02-19T14:28:20;9.63;;;3.97;;
15256;SDS011;7731;50.720;6.912;2023-02-19T14:31:01;5.93;;;3.97;;
15256;SDS011;7731;50.720;6.912;2023-02-19T14:33:47;6.13;;;3.83;;
15256;SDS011;7731;50.720;6.912;2023-02-19T14:39:15;5.68;;;4.28;;
15256;SDS011;7731;50.720;6.912;2023-02-19T14:41:51;7.90;;;4.45;;
15256;SDS011;7731;50.720;6.912;2023-02-19T14:44:28;7.30;;;4.82;;
15256;SDS011;7731;50.720;6.912;2023-02-19T14:47:06;6.95;;;5.13;;
15256;SDS011;7731;50.720;6.912;2023-02-19T14:49:43;7.68;;;4.75;;
15256;SDS011;7731;50.720;6.912;2023-02-19T14:52:19;6.72;;;4.32;;
15256;SDS011;7731;50.720;6.912;2023-02-19T14:54:56;8.30;;;5.28;;
15256;SDS011;7731;50.720;6.912;2023-02-19T14:57:35;6.03;;;4.85;;
15256;SDS011;7731;50.720;6.912;2023-02-19T15:00:20;6.70;;;4.78;;
15256;SDS011;7731;50.720;6.912;2023-02-19T15:02:56;8.00;;;5.65;;
15256;SDS011;7731;50.720;6.912;2023-02-19T15:05:28;6.50;;;5.22;;
15256;SDS011;7731;50.720;6.912;2023-02-19T15:08:02;8.20;;;5.60;;
15256;SDS011;7731;50.720;6.912;2023-02-19T15:10:40;6.78;;;5.82;;
15256;SDS011;7731;50.720;6.912;2023-02-19T15:13:16;7.63;;;6.30;;
15256;SDS011;7731;50.720;6.912;2023-02-19T15:15:53;9.57;;;6.35;;
15256;SDS011;7731;50.720;6.912;2023-02-19T15:18:27;8.85;;;5.72;;
15256;SDS011;7731;50.720;6.912;2023-02-19T15:21:03;11.27;;;5.70;;
15256;SDS011;7731;50.720;6.912;2023-02-19T15:23:35;10.48;;;5.55;;
15256;SDS011;7731;50.720;6.912;2023-02-19T15:26:14;10.27;;;5.70;;
15256;SDS011;7731;50.720;6.912;2023-02-19T15:28:57;8.13;;;5.15;;
15256;SDS011;7731;50.720;6.912;2023-02-19T15:31:29;8.55;;;6.53;;
15256;SDS011;7731;50.720;6.912;2023-02-19T15:34:02;11.15;;;6.00;;
15256;SDS011;7731;50.720;6.912;2023-02-19T15:36:37;10.82;;;5.90;;
15256;SDS011;7731;50.720;6.912;2023-02-19T15:39:11;6.75;;;5.93;;
15256;SDS011;7731;50.720;6.912;2023-02-19T15:41:54;7.78;;;5.40;;
15256;SDS011;7731;50.720;6.912;2023-02-19T15:44:32;11.82;;;5.63;;
15256;SDS011;7731;50.720;6.912;2023-02-19T15:47:15;9.23;;;5.70;;
15256;SDS011;7731;50.720;6.912;2023-02-19T15:49:58;7.47;;;5.50;;
15256;SDS011;7731;50.720;6.912;2023-02-19T15:52:39;8.45;;;5.78;;
15256;SDS011;7731;50.720;6.912;2023-02-19T15:55:22;8.68;;;5.80;;
15256;SDS011;7731;50.720;6.912;2023-02-19T15:58:04;8.35;;;5.00;;
15256;SDS011;7731;50.720;6.912;2023-02-19T16:00:46;15.15;;;5.65;;
15256;SDS011;7731;50.720;6.912;2023-02-19T16:03:20;8.25;;;5.25;;
15256;SDS011;7731;50.720;6.912;2023-02-19T16:06:03;10.65;;;5.20;;
15256;SDS011;7731;50.720;6.912;2023-02-19T16:08:40;8.18;;;5.57;;
15256;SDS011;7731;50.720;6.912;2023-02-19T16:11:24;8.05;;;5.20;;
15256;SDS011;7731;50.720;6.912;2023-02-19T16:16:52;8.82;;;5.20;;
15256;SDS011;7731;50.720;6.912;2023-02-19T16:19:35;9.52;;;5.35;;
15256;SDS011;7731;50.720;6.912;2023-02-19T16:22:20;9.77;;;5.88;;
15256;SDS011;7731;50.720;6.912;2023-02-19T16:24:54;10.20;;;5.63;;
15256;SDS011;7731;50.720;6.912;2023-02-19T16:27:28;8.05;;;5.93;;
15256;SDS011;7731;50.720;6.912;2023-02-19T16:30:05;9.57;;;5.90;;
15256;SDS011;7731;50.720;6.912;2023-02-19T16:36:17;7.00;;;5.60;;
15256;SDS011;7731;50.720;6.912;2023-02-19T16:39:03;9.77;;;5.13;;
15256;SDS011;7731;50.720;6.912;2023-02-19T16:44:46;8.43;;;4.80;;
15256;SDS011;7731;50.720;6.912;2023-02-19T16:47:23;8.50;;;5.15;;
15256;SDS011;7731;50.720;6.912;2023-02-19T16:50:10;9.77;;;4.65;;
15256;SDS011;7731;50.720;6.912;2023-02-19T16:52:51;5.97;;;4.60;;
15256;SDS011;7731;50.720;6.912;2023-02-19T16:55:26;5.20;;;4.68;;
15256;SDS011;7731;50.720;6.912;2023-02-19T16:58:00;8.98;;;5.38;;